sensor_id;sensor_type;location;lat;lon;timestamp;pressure;altitude;pressure_sealevel;temperature;humidity
60337;BME280;46978;50.288;28.624;2022-10-16T00:00:37;100029.38;;;2.47;81.55
60337;BME280;46978;50.288;28.624;2022-10-16T00:01:39;100031.95;;;2.47;81.62
60337;BME280;46978;50.288;28.624;2022-10-16T00:02:41;100030.20;;;2.46;81.48
60337;BME280;46978;50.288;28.624;2022-10-16T00:03:44;100030.20;;;2.46;81.57
60337;BME280;46978;50.288;28.624;2022-10-16T00:04:46;100030.20;;;2.46;81.38
60337;BME280;46978;50.288;28.624;2022-10-16T00:05:48;100030.20;;;2.46;80.90
60337;BME280;46978;50.288;28.624;2022-10-16T00:06:49;100030.20;;;2.46;80.90
60337;BME280;46978;50.288;28.624;2022-10-16T00:07:51;100031.13;;;2.48;81.27
60337;BME280;46978;50.288;28.624;2022-10-16T00:08:53;100028.56;;;2.48;81.18
60337;BME280;46978;50.288;28.624;2022-10-16T00:09:55;100031.17;;;2.49;81.22
60337;BME280;46978;50.288;28.624;2022-10-16T00:11:11;100034.58;;;2.50;80.99
60337;BME280;46978;50.288;28.624;2022-10-16T00:12:10;100032.02;;;2.50;81.02
60337;BME280;46978;50.288;28.624;2022-10-16T00:13:12;100027.75;;;2.50;81.06
60337;BME280;46978;50.288;28.624;2022-10-16T00:14:15;100032.88;;;2.50;81.00
60337;BME280;46978;50.288;28.624;2022-10-16T00:15:17;100026.90;;;2.50;80.94
60337;BME280;46978;50.288;28.624;2022-10-16T00:16:19;100027.75;;;2.50;81.18
60337;BME280;46978;50.288;28.624;2022-10-16T00:17:20;100027.75;;;2.50;81.03
60337;BME280;46978;50.288;28.624;2022-10-16T00:18:23;100023.55;;;2.53;80.96
60337;BME280;46978;50.288;28.624;2022-10-16T00:19:24;100025.19;;;2.50;80.43
60337;BME280;46978;50.288;28.624;2022-10-16T00:20:26;100030.35;;;2.52;80.68
60337;BME280;46978;50.288;28.624;2022-10-16T00:21:29;100030.35;;;2.52;80.62
60337;BME280;46978;50.288;28.624;2022-10-16T00:22:33;100030.35;;;2.52;80.59
60337;BME280;46978;50.288;28.624;2022-10-16T00:23:35;100025.19;;;2.50;80.42
60337;BME280;46978;50.288;28.624;2022-10-16T00:24:37;100031.20;;;2.51;80.82
60337;BME280;46978;50.288;28.624;2022-10-16T00:25:38;100033.77;;;2.51;80.74
60337;BME280;46978;50.288;28.624;2022-10-16T00:26:40;100031.20;;;2.51;80.56
60337;BME280;46978;50.288;28.624;2022-10-16T00:27:42;100026.90;;;2.50;80.52
60337;BME280;46978;50.288;28.624;2022-10-16T00:28:48;100020.92;;;2.49;80.45
60337;BME280;46978;50.288;28.624;2022-10-16T00:29:51;100023.44;;;2.48;80.57
60337;BME280;46978;50.288;28.624;2022-10-16T00:30:53;100029.45;;;2.50;80.71
60337;BME280;46978;50.288;28.624;2022-10-16T00:31:55;100027.72;;;2.49;80.63
60337;BME280;46978;50.288;28.624;2022-10-16T00:32:57;100028.56;;;2.48;80.42
60337;BME280;46978;50.288;28.624;2022-10-16T00:33:59;100023.44;;;2.48;80.50
60337;BME280;46978;50.288;28.624;2022-10-16T00:35:00;100024.26;;;2.47;80.27
60337;BME280;46978;50.288;28.624;2022-10-16T00:36:04;100025.97;;;2.46;80.32
60337;BME280;46978;50.288;28.624;2022-10-16T00:37:06;100025.08;;;2.46;80.38
60337;BME280;46978;50.288;28.624;2022-10-16T00:38:08;100029.38;;;2.47;80.50
60337;BME280;46978;50.288;28.624;2022-10-16T00:39:09;100024.26;;;2.47;80.09
60337;BME280;46978;50.288;28.624;2022-10-16T00:40:12;100021.73;;;2.48;80.19
60337;BME280;46978;50.288;28.624;2022-10-16T00:41:16;100025.12;;;2.47;80.25
60337;BME280;46978;50.288;28.624;2022-10-16T00:42:18;100026.00;;;2.48;80.08
60337;BME280;46978;50.288;28.624;2022-10-16T00:44:52;100028.53;;;2.46;80.17
60337;BME280;46978;50.288;28.624;2022-10-16T00:45:54;100025.12;;;2.47;80.05
60337;BME280;46978;50.288;28.624;2022-10-16T00:46:56;100029.38;;;2.47;80.05
60337;BME280;46978;50.288;28.624;2022-10-16T00:47:58;100030.20;;;2.46;80.15
60337;BME280;46978;50.288;28.624;2022-10-16T00:49:09;100032.72;;;2.44;80.08
60337;BME280;46978;50.288;28.624;2022-10-16T00:51:46;100030.13;;;2.43;80.17
60337;BME280;46978;50.288;28.624;2022-10-16T00:52:50;100036.09;;;2.42;80.16
60337;BME280;46978;50.288;28.624;2022-10-16T00:53:53;100030.93;;;2.40;80.14
60337;BME280;46978;50.288;28.624;2022-10-16T00:54:55;100030.89;;;2.39;80.37
60337;BME280;46978;50.288;28.624;2022-10-16T00:55:57;100031.70;;;2.38;80.37
60337;BME280;46978;50.288;28.624;2022-10-16T00:57:01;100023.98;;;2.36;80.43
60337;BME280;46978;50.288;28.624;2022-10-16T00:58:04;100023.98;;;2.36;80.43
60337;BME280;46978;50.288;28.624;2022-10-16T00:59:12;100036.75;;;2.35;80.66
60337;BME280;46978;50.288;28.624;2022-10-16T01:00:16;100042.73;;;2.35;80.67
60337;BME280;46978;50.288;28.624;2022-10-16T01:01:18;100042.69;;;2.33;80.56
60337;BME280;46978;50.288;28.624;2022-10-16T01:02:19;100047.77;;;2.32;80.69
60337;BME280;46978;50.288;28.624;2022-10-16T01:03:30;100046.02;;;2.29;80.61
60337;BME280;46978;50.288;28.624;2022-10-16T01:04:33;100043.38;;;2.26;80.52
60337;BME280;46978;50.288;28.624;2022-10-16T01:05:42;100046.75;;;2.25;80.92
60337;BME280;46978;50.288;28.624;2022-10-16T01:08:13;100046.67;;;2.22;80.76
60337;BME280;46978;50.288;28.624;2022-10-16T01:10:40;100050.86;;;2.19;81.29
60337;BME280;46978;50.288;28.624;2022-10-16T01:14:32;100047.28;;;2.13;81.42
60337;BME280;46978;50.288;28.624;2022-10-16T01:15:41;100049.80;;;2.12;81.63
60337;BME280;46978;50.288;28.624;2022-10-16T01:17:11;100048.00;;;2.08;81.70
60337;BME280;46978;50.288;28.624;2022-10-16T01:19:19;100051.34;;;2.05;81.79
60337;BME280;46978;50.288;28.624;2022-10-16T01:21:43;100048.69;;;2.02;82.10
60337;BME280;46978;50.288;28.624;2022-10-16T01:23:21;100046.95;;;2.01;82.25
60337;BME280;46978;50.288;28.624;2022-10-16T01:28:08;100045.88;;;1.93;82.34
60337;BME280;46978;50.288;28.624;2022-10-16T01:29:17;100050.09;;;1.91;82.65
60337;BME280;46978;50.288;28.624;2022-10-16T01:30:27;100053.47;;;1.90;82.70
60337;BME280;46978;50.288;28.624;2022-10-16T01:31:32;100055.95;;;1.87;82.63
60337;BME280;46978;50.288;28.624;2022-10-16T01:32:38;100054.16;;;1.84;82.81
60337;BME280;46978;50.288;28.624;2022-10-16T01:33:47;100062.68;;;1.83;83.00
60337;BME280;46978;50.288;28.624;2022-10-16T01:34:52;100057.47;;;1.80;83.18
60337;BME280;46978;50.288;28.624;2022-10-16T01:35:58;100056.55;;;1.78;83.19
60337;BME280;46978;50.288;28.624;2022-10-16T01:37:09;100065.88;;;1.76;83.42
60337;BME280;46978;50.288;28.624;2022-10-16T01:38:21;100061.53;;;1.73;83.64
60337;BME280;46978;50.288;28.624;2022-10-16T01:39:26;100059.81;;;1.72;83.75
60337;BME280;46978;50.288;28.624;2022-10-16T01:40:28;100069.11;;;1.70;83.73
60337;BME280;46978;50.288;28.624;2022-10-16T01:41:37;100074.19;;;1.69;83.56
60337;BME280;46978;50.288;28.624;2022-10-16T01:42:42;100067.27;;;1.65;83.62
60337;BME280;46978;50.288;28.624;2022-10-16T01:45:08;100067.17;;;1.61;83.82
60337;BME280;46978;50.288;28.624;2022-10-16T01:46:13;100066.28;;;1.61;84.06
60337;BME280;46978;50.288;28.624;2022-10-16T01:47:17;100063.64;;;1.58;84.10
60337;BME280;46978;50.288;28.624;2022-10-16T01:48:21;100069.64;;;1.58;84.19
60337;BME280;46978;50.288;28.624;2022-10-16T01:49:26;100072.16;;;1.57;84.36
60337;BME280;46978;50.288;28.624;2022-10-16T01:50:29;100078.94;;;1.56;84.30
60337;BME280;46978;50.288;28.624;2022-10-16T01:51:33;100076.30;;;1.53;84.24
60337;BME280;46978;50.288;28.624;2022-10-16T01:52:37;100079.70;;;1.52;84.32
60337;BME280;46978;50.288;28.624;2022-10-16T01:53:43;100077.05;;;1.49;84.29
60337;BME280;46978;50.288;28.624;2022-10-16T01:54:47;100076.06;;;1.46;84.43
60337;BME280;46978;50.288;28.624;2022-10-16T01:55:52;100075.97;;;1.42;84.34
60337;BME280;46978;50.288;28.624;2022-10-16T01:56:56;100075.02;;;1.39;84.34
60337;BME280;46978;50.288;28.624;2022-10-16T01:58:01;100082.55;;;1.34;84.58
60337;BME280;46978;50.288;28.624;2022-10-16T01:59:07;100082.50;;;1.33;84.68
60337;BME280;46978;50.288;28.624;2022-10-16T02:00:12;100082.41;;;1.30;84.97
60337;BME280;46978;50.288;28.624;2022-10-16T02:01:17;100082.41;;;1.30;85.17
60337;BME280;46978;50.288;28.624;2022-10-16T02:02:21;100078.14;;;1.29;85.29
60337;BME280;46978;50.288;28.624;2022-10-16T02:03:24;100084.06;;;1.28;85.31
60337;BME280;46978;50.288;28.624;2022-10-16T02:04:32;100079.80;;;1.28;85.46
60337;BME280;46978;50.288;28.624;2022-10-16T02:05:54;100086.66;;;1.29;85.56
60337;BME280;46978;50.288;28.624;2022-10-16T02:06:57;100087.52;;;1.30;85.70
60337;BME280;46978;50.288;28.624;2022-10-16T02:07:59;100082.45;;;1.31;85.82
60337;BME280;46978;50.288;28.624;2022-10-16T02:09:01;100079.95;;;1.33;85.95
60337;BME280;46978;50.288;28.624;2022-10-16T02:10:04;100083.41;;;1.35;85.98
60337;BME280;46978;50.288;28.624;2022-10-16T02:11:06;100084.34;;;1.37;86.06
60337;BME280;46978;50.288;28.624;2022-10-16T02:12:19;100079.28;;;1.38;86.11
60337;BME280;46978;50.288;28.624;2022-10-16T02:14:28;100080.18;;;1.40;85.90
60337;BME280;46978;50.288;28.624;2022-10-16T02:15:30;100083.64;;;1.42;85.95
60337;BME280;46978;50.288;28.624;2022-10-16T02:16:34;100085.39;;;1.43;85.84
60337;BME280;46978;50.288;28.624;2022-10-16T02:17:36;100085.39;;;1.43;85.84
60337;BME280;46978;50.288;28.624;2022-10-16T02:18:39;100083.69;;;1.44;85.62
60337;BME280;46978;50.288;28.624;2022-10-16T02:19:42;100082.02;;;1.45;85.75
60337;BME280;46978;50.288;28.624;2022-10-16T02:20:57;100084.63;;;1.46;85.81
60337;BME280;46978;50.288;28.624;2022-10-16T02:22:02;100084.63;;;1.46;85.90
60337;BME280;46978;50.288;28.624;2022-10-16T02:23:05;100078.67;;;1.47;85.64
60337;BME280;46978;50.288;28.624;2022-10-16T02:25:37;100084.58;;;1.45;85.28
60337;BME280;46978;50.288;28.624;2022-10-16T02:28:10;100082.69;;;1.39;84.66
60337;BME280;46978;50.288;28.624;2022-10-16T02:29:15;100081.83;;;1.38;84.99
60337;BME280;46978;50.288;28.624;2022-10-16T02:30:28;100087.71;;;1.36;85.18
60337;BME280;46978;50.288;28.624;2022-10-16T02:31:32;100084.30;;;1.35;85.42
60337;BME280;46978;50.288;28.624;2022-10-16T02:32:37;100079.19;;;1.35;85.57
60337;BME280;46978;50.288;28.624;2022-10-16T02:33:41;100075.73;;;1.35;85.52
60337;BME280;46978;50.288;28.624;2022-10-16T02:34:45;100084.25;;;1.34;85.43
60337;BME280;46978;50.288;28.624;2022-10-16T02:35:49;100083.36;;;1.33;85.65
60337;BME280;46978;50.288;28.624;2022-10-16T02:36:52;100086.80;;;1.34;85.88
60337;BME280;46978;50.288;28.624;2022-10-16T02:37:55;100081.70;;;1.34;85.77
60337;BME280;46978;50.288;28.624;2022-10-16T02:38:58;100084.20;;;1.32;85.67
60337;BME280;46978;50.288;28.624;2022-10-16T02:40:00;100089.31;;;1.32;85.55
60337;BME280;46978;50.288;28.624;2022-10-16T02:41:03;100085.02;;;1.31;85.98
60337;BME280;46978;50.288;28.624;2022-10-16T02:42:13;100090.08;;;1.30;85.30
60337;BME280;46978;50.288;28.624;2022-10-16T02:43:16;100088.36;;;1.29;85.73
60337;BME280;46978;50.288;28.624;2022-10-16T02:44:17;100089.17;;;1.28;85.83
60337;BME280;46978;50.288;28.624;2022-10-16T02:45:19;100085.72;;;1.25;86.00
60337;BME280;46978;50.288;28.624;2022-10-16T02:46:22;100086.52;;;1.24;85.98
60337;BME280;46978;50.288;28.624;2022-10-16T02:47:23;100085.62;;;1.22;85.93
60337;BME280;46978;50.288;28.624;2022-10-16T02:48:25;100093.28;;;1.22;85.95
60337;BME280;46978;50.288;28.624;2022-10-16T02:49:27;100092.35;;;1.20;86.02
60337;BME280;46978;50.288;28.624;2022-10-16T02:50:28;100092.25;;;1.17;86.03
60337;BME280;46978;50.288;28.624;2022-10-16T02:51:30;100093.91;;;1.15;86.06
60337;BME280;46978;50.288;28.624;2022-10-16T02:52:32;100093.80;;;1.12;86.12
60337;BME280;46978;50.288;28.624;2022-10-16T02:53:33;100098.02;;;1.10;86.13
60337;BME280;46978;50.288;28.624;2022-10-16T02:54:35;100092.80;;;1.07;86.00
60337;BME280;46978;50.288;28.624;2022-10-16T02:55:37;100097.81;;;1.04;85.69
60337;BME280;46978;50.288;28.624;2022-10-16T02:56:39;100101.08;;;1.00;85.91
60337;BME280;46978;50.288;28.624;2022-10-16T02:57:40;100096.62;;;0.94;85.92
60337;BME280;46978;50.288;28.624;2022-10-16T02:58:42;100095.72;;;0.92;85.96
60337;BME280;46978;50.288;28.624;2022-10-16T02:59:44;100100.68;;;0.87;85.83
60337;BME280;46978;50.288;28.624;2022-10-16T03:00:46;100098.83;;;0.83;86.05
60337;BME280;46978;50.288;28.624;2022-10-16T03:01:48;100111.50;;;0.80;86.43
60337;BME280;46978;50.288;28.624;2022-10-16T03:02:50;100098.63;;;0.77;85.93
60337;BME280;46978;50.288;28.624;2022-10-16T03:03:51;100108.74;;;0.74;85.49
60337;BME280;46978;50.288;28.624;2022-10-16T03:04:53;100111.20;;;0.71;85.84
60337;BME280;46978;50.288;28.624;2022-10-16T03:05:55;100109.38;;;0.67;86.34
60337;BME280;46978;50.288;28.624;2022-10-16T03:06:57;100106.77;;;0.65;86.74
60337;BME280;46978;50.288;28.624;2022-10-16T03:07:59;100113.44;;;0.62;86.65
60337;BME280;46978;50.288;28.624;2022-10-16T03:09:00;100109.12;;;0.59;87.19
60337;BME280;46978;50.288;28.624;2022-10-16T03:10:03;100115.89;;;0.59;87.51
60337;BME280;46978;50.288;28.624;2022-10-16T03:11:04;100119.17;;;0.55;87.43
60337;BME280;46978;50.288;28.624;2022-10-16T03:12:06;100119.13;;;0.53;87.19
60337;BME280;46978;50.288;28.624;2022-10-16T03:13:08;100117.32;;;0.50;87.26
60337;BME280;46978;50.288;28.624;2022-10-16T03:14:10;100124.07;;;0.48;87.15
60337;BME280;46978;50.288;28.624;2022-10-16T03:15:12;100123.13;;;0.46;87.28
60337;BME280;46978;50.288;28.624;2022-10-16T03:16:14;100117.11;;;0.44;87.63
60337;BME280;46978;50.288;28.624;2022-10-16T03:17:15;100114.50;;;0.43;87.30
60337;BME280;46978;50.288;28.624;2022-10-16T03:18:17;100119.55;;;0.41;87.17
60337;BME280;46978;50.288;28.624;2022-10-16T03:19:19;100125.41;;;0.39;87.17
60337;BME280;46978;50.288;28.624;2022-10-16T03:20:21;100125.30;;;0.35;86.74
60337;BME280;46978;50.288;28.624;2022-10-16T03:21:22;100122.64;;;0.32;87.14
60337;BME280;46978;50.288;28.624;2022-10-16T03:22:24;100124.28;;;0.30;87.28
60337;BME280;46978;50.288;28.624;2022-10-16T03:23:26;100122.48;;;0.28;86.80
60337;BME280;46978;50.288;28.624;2022-10-16T03:24:28;100129.16;;;0.24;87.05
60337;BME280;46978;50.288;28.624;2022-10-16T03:25:29;100122.26;;;0.22;87.09
60337;BME280;46978;50.288;28.624;2022-10-16T03:26:31;100125.59;;;0.19;86.56
60337;BME280;46978;50.288;28.624;2022-10-16T03:27:33;100122.04;;;0.15;86.48
60337;BME280;46978;50.288;28.624;2022-10-16T03:28:35;100127.03;;;0.12;86.18
60337;BME280;46978;50.288;28.624;2022-10-16T03:29:36;100126.98;;;0.11;86.80
60337;BME280;46978;50.288;28.624;2022-10-16T03:30:38;100126.06;;;0.09;87.03
60337;BME280;46978;50.288;28.624;2022-10-16T03:31:41;100128.61;;;0.09;87.39
60337;BME280;46978;50.288;28.624;2022-10-16T03:32:44;100132.80;;;0.07;87.53
60337;BME280;46978;50.288;28.624;2022-10-16T03:33:46;100126.75;;;0.05;87.36
60337;BME280;46978;50.288;28.624;2022-10-16T03:34:47;100129.25;;;0.03;87.53
60337;BME280;46978;50.288;28.624;2022-10-16T03:35:53;100125.89;;;0.04;87.72
60337;BME280;46978;50.288;28.624;2022-10-16T03:36:55;100130.94;;;0.03;87.43
60337;BME280;46978;50.288;28.624;2022-10-16T03:37:57;100127.53;;;0.02;88.84
60337;BME280;46978;50.288;28.624;2022-10-16T03:38:59;100130.14;;;0.04;88.97
60337;BME280;46978;50.288;28.624;2022-10-16T03:40:00;100126.64;;;0.02;88.58
60337;BME280;46978;50.288;28.624;2022-10-16T03:41:02;100132.63;;;0.02;88.48
60337;BME280;46978;50.288;28.624;2022-10-16T03:42:04;100135.19;;;0.02;88.98
60337;BME280;46978;50.288;28.624;2022-10-16T03:43:06;100135.19;;;0.02;88.98
60337;BME280;46978;50.288;28.624;2022-10-16T03:44:07;100128.33;;;0.01;88.96
60337;BME280;46978;50.288;28.624;2022-10-16T03:45:10;100126.62;;;0.00;89.12
60337;BME280;46978;50.288;28.624;2022-10-16T03:46:12;100133.44;;;0.01;89.25
60337;BME280;46978;50.288;28.624;2022-10-16T03:47:14;100131.72;;;0.00;89.28
60337;BME280;46978;50.288;28.624;2022-10-16T03:48:16;100131.72;;;0.00;89.47
60337;BME280;46978;50.288;28.624;2022-10-16T03:49:17;100133.38;;;-0.01;89.38
60337;BME280;46978;50.288;28.624;2022-10-16T03:50:19;100130.83;;;-0.01;89.64
60337;BME280;46978;50.288;28.624;2022-10-16T03:51:21;100129.11;;;-0.02;89.47
60337;BME280;46978;50.288;28.624;2022-10-16T03:52:23;100134.22;;;-0.02;89.64
60337;BME280;46978;50.288;28.624;2022-10-16T03:53:25;100125.67;;;-0.02;89.55
60337;BME280;46978;50.288;28.624;2022-10-16T03:54:27;100129.97;;;-0.01;89.87
60337;BME280;46978;50.288;28.624;2022-10-16T03:55:28;100134.30;;;0.02;90.33
60337;BME280;46978;50.288;28.624;2022-10-16T03:56:30;100140.29;;;0.02;90.21
60337;BME280;46978;50.288;28.624;2022-10-16T03:57:32;100136.84;;;0.02;90.24
60337;BME280;46978;50.288;28.624;2022-10-16T03:58:33;100136.84;;;0.02;90.14
60337;BME280;46978;50.288;28.624;2022-10-16T03:59:35;100135.93;;;-0.01;89.89
60337;BME280;46978;50.288;28.624;2022-10-16T04:00:41;100135.07;;;-0.01;89.37
60337;BME280;46978;50.288;28.624;2022-10-16T04:01:44;100142.67;;;-0.03;89.18
60337;BME280;46978;50.288;28.624;2022-10-16T04:02:45;100141.70;;;-0.06;89.16
60337;BME280;46978;50.288;28.624;2022-10-16T04:03:47;100141.64;;;-0.08;89.20
60337;BME280;46978;50.288;28.624;2022-10-16T04:04:49;100140.75;;;-0.08;89.43
60337;BME280;46978;50.288;28.624;2022-10-16T04:05:51;100143.30;;;-0.08;89.77
60337;BME280;46978;50.288;28.624;2022-10-16T04:06:52;100146.74;;;-0.08;90.04
60337;BME280;46978;50.288;28.624;2022-10-16T04:07:54;100146.74;;;-0.08;90.30
60337;BME280;46978;50.288;28.624;2022-10-16T04:08:56;100152.70;;;-0.07;90.43
60337;BME280;46978;50.288;28.624;2022-10-16T04:09:57;100152.70;;;-0.07;90.39
60337;BME280;46978;50.288;28.624;2022-10-16T04:10:59;100151.02;;;-0.07;90.47
60337;BME280;46978;50.288;28.624;2022-10-16T04:12:01;100150.95;;;-0.08;90.28
60337;BME280;46978;50.288;28.624;2022-10-16T04:13:03;100157.75;;;-0.09;90.07
60337;BME280;46978;50.288;28.624;2022-10-16T04:14:04;100157.69;;;-0.10;89.63
60337;BME280;46978;50.288;28.624;2022-10-16T04:15:07;100150.72;;;-0.14;89.33
60337;BME280;46978;50.288;28.624;2022-10-16T04:16:09;100155.83;;;-0.14;89.48
60337;BME280;46978;50.288;28.624;2022-10-16T04:17:10;100162.56;;;-0.16;89.24
60337;BME280;46978;50.288;28.624;2022-10-16T04:18:12;100161.64;;;-0.19;89.49
60337;BME280;46978;50.288;28.624;2022-10-16T04:19:14;100160.69;;;-0.21;89.52
60337;BME280;46978;50.288;28.624;2022-10-16T04:20:16;100156.42;;;-0.22;89.57
60337;BME280;46978;50.288;28.624;2022-10-16T04:21:17;100163.19;;;-0.22;89.70
60337;BME280;46978;50.288;28.624;2022-10-16T04:22:19;100160.58;;;-0.24;89.79
60337;BME280;46978;50.288;28.624;2022-10-16T04:23:21;100164.77;;;-0.26;89.74
60337;BME280;46978;50.288;28.624;2022-10-16T04:24:23;100168.95;;;-0.28;89.50
60337;BME280;46978;50.288;28.624;2022-10-16T04:25:24;100162.72;;;-0.34;89.15
60337;BME280;46978;50.288;28.624;2022-10-16T04:26:26;100162.72;;;-0.34;89.15
60337;BME280;46978;50.288;28.624;2022-10-16T04:27:28;100163.48;;;-0.37;88.91
60337;BME280;46978;50.288;28.624;2022-10-16T04:28:30;100163.43;;;-0.39;88.96
60337;BME280;46978;50.288;28.624;2022-10-16T04:29:31;100159.92;;;-0.41;88.99
60337;BME280;46978;50.288;28.624;2022-10-16T04:30:33;100161.50;;;-0.44;88.48
60337;BME280;46978;50.288;28.624;2022-10-16T04:31:35;100168.23;;;-0.46;89.01
60337;BME280;46978;50.288;28.624;2022-10-16T04:32:36;100165.68;;;-0.46;89.16
60337;BME280;46978;50.288;28.624;2022-10-16T04:33:38;100174.92;;;-0.48;88.73
60337;BME280;46978;50.288;28.624;2022-10-16T04:34:40;100168.91;;;-0.50;89.20
60337;BME280;46978;50.288;28.624;2022-10-16T04:35:41;100167.22;;;-0.50;89.67
60337;BME280;46978;50.288;28.624;2022-10-16T04:36:43;100174.86;;;-0.50;89.80
60337;BME280;46978;50.288;28.624;2022-10-16T04:37:45;100165.56;;;-0.49;89.88
60337;BME280;46978;50.288;28.624;2022-10-16T04:38:47;100165.56;;;-0.49;89.99
60337;BME280;46978;50.288;28.624;2022-10-16T04:39:49;100172.31;;;-0.50;89.77
60337;BME280;46978;50.288;28.624;2022-10-16T04:40:51;100170.66;;;-0.49;89.83
60337;BME280;46978;50.288;28.624;2022-10-16T04:41:53;100168.97;;;-0.49;89.75
60337;BME280;46978;50.288;28.624;2022-10-16T04:42:55;100176.62;;;-0.49;89.51
60337;BME280;46978;50.288;28.624;2022-10-16T04:43:57;100176.55;;;-0.50;89.46
60337;BME280;46978;50.288;28.624;2022-10-16T04:44:58;100174.80;;;-0.51;89.42
60337;BME280;46978;50.288;28.624;2022-10-16T04:46:00;100177.36;;;-0.51;89.80
60337;BME280;46978;50.288;28.624;2022-10-16T04:47:02;100179.11;;;-0.50;90.09
60337;BME280;46978;50.288;28.624;2022-10-16T04:48:04;100180.86;;;-0.49;91.08
60337;BME280;46978;50.288;28.624;2022-10-16T04:49:05;100181.84;;;-0.46;91.89
60337;BME280;46978;50.288;28.624;2022-10-16T04:50:08;100176.80;;;-0.44;92.03
60337;BME280;46978;50.288;28.624;2022-10-16T04:51:10;100186.31;;;-0.40;91.86
60337;BME280;46978;50.288;28.624;2022-10-16T04:52:12;100188.03;;;-0.39;91.76
60337;BME280;46978;50.288;28.624;2022-10-16T04:53:14;100190.59;;;-0.39;91.47
60337;BME280;46978;50.288;28.624;2022-10-16T04:54:16;100196.58;;;-0.39;91.28
60337;BME280;46978;50.288;28.624;2022-10-16T04:55:17;100201.80;;;-0.35;91.37
60337;BME280;46978;50.288;28.624;2022-10-16T04:56:19;100203.58;;;-0.33;91.48
60337;BME280;46978;50.288;28.624;2022-10-16T04:57:21;100197.73;;;-0.30;91.62
60337;BME280;46978;50.288;28.624;2022-10-16T04:58:23;100199.55;;;-0.28;91.56
60337;BME280;46978;50.288;28.624;2022-10-16T04:59:25;100199.73;;;-0.23;91.62
60337;BME280;46978;50.288;28.624;2022-10-16T05:00:26;100204.11;;;-0.19;91.68
60337;BME280;46978;50.288;28.624;2022-10-16T05:01:28;100194.03;;;-0.16;91.76
60337;BME280;46978;50.288;28.624;2022-10-16T05:02:30;100200.14;;;-0.12;91.82
60337;BME280;46978;50.288;28.624;2022-10-16T05:03:31;100200.32;;;-0.08;91.78
60337;BME280;46978;50.288;28.624;2022-10-16T05:04:33;100195.33;;;-0.05;91.57
60337;BME280;46978;50.288;28.624;2022-10-16T05:05:36;100195.45;;;-0.02;91.43
60337;BME280;46978;50.288;28.624;2022-10-16T05:06:38;100199.77;;;0.01;91.05
60337;BME280;46978;50.288;28.624;2022-10-16T05:07:40;100199.89;;;0.04;90.95
60337;BME280;46978;50.288;28.624;2022-10-16T05:08:41;100194.91;;;0.07;90.97
60337;BME280;46978;50.288;28.624;2022-10-16T05:09:43;100209.47;;;0.10;90.72
60337;BME280;46978;50.288;28.624;2022-10-16T05:10:45;100205.28;;;0.12;90.25
60337;BME280;46978;50.288;28.624;2022-10-16T05:11:47;100205.34;;;0.13;89.96
60337;BME280;46978;50.288;28.624;2022-10-16T05:12:48;100206.31;;;0.17;90.19
60337;BME280;46978;50.288;28.624;2022-10-16T05:13:50;100212.42;;;0.21;89.71
60337;BME280;46978;50.288;28.624;2022-10-16T05:14:52;100216.81;;;0.25;89.97
60337;BME280;46978;50.288;28.624;2022-10-16T05:15:53;100215.27;;;0.28;90.28
60337;BME280;46978;50.288;28.624;2022-10-16T05:16:55;100218.84;;;0.33;90.60
60337;BME280;46978;50.288;28.624;2022-10-16T05:17:57;100215.60;;;0.38;90.66
60337;BME280;46978;50.288;28.624;2022-10-16T05:18:59;100225.15;;;0.43;90.62
60337;BME280;46978;50.288;28.624;2022-10-16T05:20:01;100216.80;;;0.47;90.47
60337;BME280;46978;50.288;28.624;2022-10-16T05:21:02;100216.11;;;0.51;90.46
60337;BME280;46978;50.288;28.624;2022-10-16T05:22:04;100218.83;;;0.56;90.37
60337;BME280;46978;50.288;28.624;2022-10-16T05:23:06;100225.81;;;0.62;90.38
60337;BME280;46978;50.288;28.624;2022-10-16T05:24:08;100223.42;;;0.66;90.34
60337;BME280;46978;50.288;28.624;2022-10-16T05:25:09;100216.77;;;0.70;90.02
60337;BME280;46978;50.288;28.624;2022-10-16T05:26:12;100222.84;;;0.74;89.43
60337;BME280;46978;50.288;28.624;2022-10-16T05:27:13;100225.55;;;0.78;89.38
60337;BME280;46978;50.288;28.624;2022-10-16T05:28:15;100229.02;;;0.80;88.18
60337;BME280;46978;50.288;28.624;2022-10-16T05:29:17;100227.36;;;0.81;86.95
60337;BME280;46978;50.288;28.624;2022-10-16T05:30:19;100226.58;;;0.83;86.76
60337;BME280;46978;50.288;28.624;2022-10-16T05:31:21;100229.23;;;0.86;86.84
60337;BME280;46978;50.288;28.624;2022-10-16T05:32:22;100228.48;;;0.89;86.45
60337;BME280;46978;50.288;28.624;2022-10-16T05:33:25;100230.34;;;0.93;86.92
60337;BME280;46978;50.288;28.624;2022-10-16T05:34:27;100232.22;;;0.99;87.12
60337;BME280;46978;50.288;28.624;2022-10-16T05:35:28;100236.73;;;1.06;87.54
60337;BME280;46978;50.288;28.624;2022-10-16T05:36:30;100234.44;;;1.14;87.78
60337;BME280;46978;50.288;28.624;2022-10-16T05:37:32;100236.34;;;1.19;87.94
60337;BME280;46978;50.288;28.624;2022-10-16T05:38:35;100237.36;;;1.24;87.75
60337;BME280;46978;50.288;28.624;2022-10-16T05:39:37;100231.64;;;1.32;87.87
60337;BME280;46978;50.288;28.624;2022-10-16T05:40:39;100229.26;;;1.38;87.82
60337;BME280;46978;50.288;28.624;2022-10-16T05:41:43;100233.77;;;1.45;87.80
60337;BME280;46978;50.288;28.624;2022-10-16T05:42:45;100230.60;;;1.52;87.81
60337;BME280;46978;50.288;28.624;2022-10-16T05:43:47;100228.24;;;1.58;87.71
60337;BME280;46978;50.288;28.624;2022-10-16T05:44:49;100225.92;;;1.66;87.37
60337;BME280;46978;50.288;28.624;2022-10-16T05:46:59;100234.09;;;1.82;87.05
60337;BME280;46978;50.288;28.624;2022-10-16T05:48:01;100232.63;;;1.90;86.94
60337;BME280;46978;50.288;28.624;2022-10-16T05:49:02;100231.11;;;1.96;86.89
60337;BME280;46978;50.288;28.624;2022-10-16T05:50:05;100229.63;;;2.03;86.47